Time;durP1;ratioP1;P1;durP2;ratioP2;P2;SDS_P1;SDS_P2;PMS_P1;PMS_P2;Temp;Humidity;BMP_temperature;BMP_pressure;BME280_temperature;BME280_humidity;BME280_pressure;Samples;Min_cycle;Max_cycle;Signal;HPM_P1;HPM_P2
2022/09/04 07:22:51;;;;;;;3.80;1.90;;;;;;;21.35;69.19;96894.22;2109364;27;20566;-66
2022/09/04 07:24:05;;;;;;;3.00;2.05;;;;;;;21.71;67.30;96893.91;2099263;28;20206;-67
2022/09/04 07:25:29;;;;;;;3.03;2.25;;;;;;;22.22;66.70;96908.97;2100262;28;20193;-68
2022/09/04 07:26:47;;;;;;;8.27;2.30;;;;;;;22.07;67.30;96902.31;2101469;28;20202;-67
2022/09/04 07:28:09;;;;;;;7.22;2.08;;;;;;;21.88;67.40;96906.59;2100034;28;20226;-67
2022/09/04 07:29:36;;;;;;;2.85;1.83;;;;;;;22.09;65.82;96906.50;2099782;28;20199;-68
2022/09/04 07:50:46;;;;;;;3.72;1.20;;;;;;;24.17;57.91;96922.41;2101026;27;20565;-66
2022/09/04 07:51:57;;;;;;;2.63;1.63;;;;;;;24.22;58.38;96922.78;2101587;28;20862;-66
2022/09/04 07:53:23;;;;;;;5.75;1.75;;;;;;;24.42;58.48;96928.88;2091745;28;20223;-66
2022/09/04 07:54:45;;;;;;;1.88;1.17;;;;;;;24.32;57.29;96912.09;2089383;28;20211;-66
2022/09/04 07:55:50;;;;;;;3.95;1.45;;;;;;;24.49;58.44;96924.59;2090133;28;20192;-66
2022/09/04 07:57:14;;;;;;;3.55;1.50;;;;;;;24.26;60.28;96932.16;2090772;28;20200;-66
2022/09/04 07:58:31;;;;;;;3.60;1.83;;;;;;;23.93;59.71;96929.06;2090754;28;20558;-67
2022/09/04 08:14:17;;;;;;;3.28;1.00;;;;;;;25.40;54.69;96946.94;2084580;28;20574;-65
2022/09/04 08:15:22;;;;;;;2.83;1.42;;;;;;;25.01;55.64;96942.69;2083756;28;20192;-65
2022/09/04 08:16:35;;;;;;;2.50;1.20;;;;;;;24.76;55.62;96950.47;2079368;28;20657;-66
2022/09/04 08:17:54;;;;;;;2.47;1.02;;;;;;;24.96;55.60;96949.50;2075465;28;20231;-66
2022/09/04 08:19:10;;;;;;;3.75;1.55;;;;;;;24.65;56.58;96945.34;2074031;28;20196;-66
2022/09/04 08:20:40;;;;;;;1.60;1.13;;;;;;;24.23;57.36;96948.50;2074352;28;20201;-65
2022/09/04 08:21:43;;;;;;;2.97;1.55;;;;;;;24.29;58.41;96947.91;2070995;28;20202;-66
2022/09/04 08:23:04;;;;;;;3.15;1.23;;;;;;;24.33;57.42;96946.63;2082637;28;20220;-66
2022/09/04 08:24:18;;;;;;;2.10;1.10;;;;;;;24.24;58.83;96958.16;2076474;28;20715;-65
2022/09/04 08:45:17;;;;;;;2.67;1.33;;;;;;;23.90;58.91;96969.34;2058620;27;1228880;-61
2022/09/04 08:46:57;;;;;;;3.75;1.73;;;;;;;23.92;59.47;96965.56;2102748;28;20660;-62
2022/09/04 08:48:01;;;;;;;3.40;1.20;;;;;;;24.10;60.82;96970.16;2078010;28;20209;-62
2022/09/04 08:56:05;;;;;;;2.85;1.33;;;;;;;24.41;56.23;96977.91;2078419;28;20765;-62
2022/09/04 09:07:12;;;;;;;2.90;1.35;;;;;;;24.50;58.27;96976.16;2085527;27;20584;-62
2022/09/04 09:08:38;;;;;;;3.35;1.42;;;;;;;24.84;56.99;96978.28;2070428;28;20198;-62
2022/09/04 09:09:52;;;;;;;3.05;1.30;;;;;;;24.81;57.87;96982.06;2070446;28;20236;-62
2022/09/04 09:11:00;;;;;;;4.22;1.35;;;;;;;24.55;56.52;96941.88;2070366;28;20198;-62
2022/09/04 09:12:23;;;;;;;3.55;1.70;;;;;;;25.20;56.15;96976.44;2070319;28;20661;-62
2022/09/04 09:20:15;;;;;;;3.00;1.20;;;;;;;24.54;57.54;96970.38;2062203;28;20221;-62
2022/09/04 09:21:58;;;;;;;2.97;1.60;;;;;;;25.53;55.25;96970.59;2061558;28;20669;-62
2022/09/04 09:23:16;;;;;;;8.88;1.60;;;;;;;25.43;55.76;96973.34;2042495;29;20234;-61
2022/09/04 09:38:35;;;;;;;5.30;1.50;;;;;;;24.81;56.68;96971.41;2091670;27;20586;-62
2022/09/04 09:40:08;;;;;;;2.30;1.10;;;;;;;25.34;54.56;96964.38;2089295;28;20662;-61
2022/09/04 09:41:27;;;;;;;1.92;1.20;;;;;;;25.76;54.16;96962.91;2092666;28;20188;-62
2022/09/04 09:42:48;;;;;;;2.15;1.17;;;;;;;25.90;52.60;96948.13;2071731;28;20224;-62
2022/09/04 09:44:11;;;;;;;3.97;1.38;;;;;;;26.50;50.71;96966.03;2064646;28;20665;-62
2022/09/04 09:45:35;;;;;;;2.38;1.08;;;;;;;27.26;50.53;96963.41;2065126;28;20217;-61
2022/09/04 09:47:00;;;;;;;2.08;1.20;;;;;;;26.26;50.58;96960.56;2066171;28;20198;-62
2022/09/04 09:48:17;;;;;;;2.05;1.00;;;;;;;25.70;51.70;96961.69;2077800;28;20213;-62
2022/09/04 09:49:43;;;;;;;3.10;1.05;;;;;;;25.84;52.52;96965.66;2076768;28;20205;-62
2022/09/04 09:51:04;;;;;;;2.25;1.25;;;;;;;26.92;50.55;96966.19;2074949;28;20197;-62
2022/09/04 09:52:27;;;;;;;2.65;1.30;;;;;;;27.13;49.77;96958.50;2074215;28;20309;-62
2022/09/04 09:53:47;;;;;;;3.25;1.20;;;;;;;27.23;49.33;96960.22;2075098;28;20672;-62
2022/09/04 09:55:17;;;;;;;2.60;0.90;;;;;;;27.60;47.03;96961.59;2075842;28;20196;-62
2022/09/04 09:56:27;;;;;;;1.92;1.13;;;;;;;28.08;46.04;96959.03;2076231;28;20200;-62
2022/09/04 09:58:06;;;;;;;1.92;1.10;;;;;;;28.11;46.26;96954.19;2073697;28;20304;-62
2022/09/04 09:59:35;;;;;;;3.78;1.13;;;;;;;28.56;45.56;96956.38;2074714;28;20208;-62
2022/09/04 10:00:59;;;;;;;1.77;1.00;;;;;;;28.96;45.47;96963.41;2075568;28;20645;-62
2022/09/04 10:02:07;;;;;;;2.15;1.10;;;;;;;29.39;43.49;96962.97;2072298;28;20205;-62
2022/09/04 10:03:51;;;;;;;3.40;1.00;;;;;;;29.56;44.31;96970.91;2084253;28;20189;-62
2022/09/04 10:04:58;;;;;;;1.80;1.00;;;;;;;29.35;43.44;96963.53;2078027;28;20671;-62
2022/09/04 10:06:09;;;;;;;5.25;1.10;;;;;;;29.28;44.14;96966.06;2071486;28;20201;-61
2022/09/04 10:07:29;;;;;;;1.90;1.10;;;;;;;29.00;44.46;96962.03;2072391;28;20232;-61
2022/09/04 10:08:49;;;;;;;6.60;1.00;;;;;;;28.93;42.26;96965.59;2073481;28;20679;-61
2022/09/04 10:10:15;;;;;;;4.85;1.10;;;;;;;28.12;44.87;96957.69;2074044;28;20232;-62
2022/09/04 10:11:43;;;;;;;1.30;0.85;;;;;;;28.22;44.97;96955.63;2076434;28;20208;-63
2022/09/04 10:13:03;;;;;;;2.85;1.00;;;;;;;28.47;44.68;96961.75;2075779;28;20221;-64
2022/09/04 10:14:42;;;;;;;1.52;0.90;;;;;;;29.57;42.83;96970.75;2074794;28;20563;-62
2022/09/04 10:16:11;;;;;;;6.60;1.10;;;;;;;29.67;41.64;96962.41;2072144;28;20197;-62
2022/09/04 10:17:37;;;;;;;4.05;0.80;;;;;;;28.91;41.55;96963.09;2075781;28;20453;-62
2022/09/04 10:19:03;;;;;;;2.80;1.10;;;;;;;28.71;43.91;96960.03;2072545;28;20591;-61
2022/09/04 10:20:24;;;;;;;4.15;0.98;;;;;;;29.30;41.74;96954.13;2072023;28;20197;-61
2022/09/04 10:22:12;;;;;;;1.92;1.10;;;;;;;29.67;41.60;96962.41;2072176;28;20197;-60
2022/09/04 10:23:57;;;;;;;2.03;1.00;;;;;;;29.28;41.99;96950.78;2077432;28;20220;-61
2022/09/04 10:25:44;;;;;;;2.42;0.90;;;;;;;28.88;43.36;96957.25;2054401;28;20203;-61
2022/09/04 10:27:20;;;;;;;2.53;1.08;;;;;;;28.72;42.07;96955.47;2044243;29;20286;-61
2022/09/04 10:28:40;;;;;;;4.55;1.10;;;;;;;28.98;41.07;96953.31;2075016;28;20218;-61
2022/09/04 10:29:59;;;;;;;1.35;0.80;;;;;;;29.94;39.55;96944.00;2076217;28;20200;-61
2022/09/04 10:31:36;;;;;;;2.30;0.90;;;;;;;30.83;38.25;96950.38;2075557;28;20197;-60
2022/09/04 10:32:54;;;;;;;5.43;1.03;;;;;;;29.93;37.79;96950.44;2073072;28;20654;-61
2022/09/04 10:34:27;;;;;;;2.60;1.05;;;;;;;29.60;40.21;96948.84;2073979;28;20895;-62
2022/09/04 10:36:09;;;;;;;2.67;1.05;;;;;;;28.70;40.81;96946.75;2072856;28;20193;-62
2022/09/04 10:37:25;;;;;;;17.95;1.05;;;;;;;27.98;41.58;96941.25;2073135;28;20236;-62
2022/09/04 10:40:37;;;;;;;2.40;1.00;;;;;;;27.89;42.25;96947.63;2057679;28;21117;-62
2022/09/04 10:42:07;;;;;;;1.70;0.80;;;;;;;28.02;41.55;96942.59;2054243;28;20203;-62
2022/09/04 11:04:58;;;;;;;3.03;1.10;;;;;;;25.18;54.62;96949.06;2095528;28;20586;-59
2022/09/04 11:06:28;;;;;;;2.58;1.20;;;;;;;25.05;54.32;96943.25;2095331;28;20211;-60
2022/09/04 11:07:50;;;;;;;4.60;1.50;;;;;;;25.81;52.46;96952.56;2088766;28;20621;-61
2022/09/04 11:08:59;;;;;;;2.25;1.10;;;;;;;26.44;51.40;96953.28;2086043;28;20227;-61
2022/09/04 11:10:07;;;;;;;2.20;0.98;;;;;;;26.43;50.73;96948.09;2086616;28;20193;-62
2022/09/04 11:11:49;;;;;;;5.75;1.30;;;;;;;26.37;50.31;96952.25;2086773;28;20196;-62
2022/09/04 11:13:28;;;;;;;10.80;1.30;;;;;;;26.31;50.41;96951.06;2086431;28;20212;-62
2022/09/04 11:14:54;;;;;;;2.58;1.40;;;;;;;28.39;46.58;96950.22;2086794;28;20200;-62
2022/09/04 11:16:18;;;;;;;2.10;1.10;;;;;;;28.90;44.54;96950.69;2087055;28;20604;-61
2022/09/04 11:17:47;;;;;;;4.80;1.13;;;;;;;28.11;45.56;96954.19;2086111;28;20288;-62
2022/09/04 11:19:22;;;;;;;4.57;1.30;;;;;;;28.39;45.20;96950.22;2086185;28;20595;-62
2022/09/04 11:20:43;;;;;;;3.15;1.00;;;;;;;27.95;46.51;96959.56;2093641;28;20200;-61
2022/09/04 11:22:13;;;;;;;3.38;1.00;;;;;;;27.51;46.55;96953.53;2090616;28;20228;-61
2022/09/04 11:23:52;;;;;;;4.38;1.08;;;;;;;27.97;45.67;96954.84;2086817;28;20228;-61
2022/09/04 11:25:17;;;;;;;3.85;1.10;;;;;;;29.11;44.41;96960.78;2086681;28;20188;-61
2022/09/04 11:26:36;;;;;;;2.50;0.90;;;;;;;29.70;43.06;96955.81;2057070;28;20207;-61
2022/09/04 11:28:11;;;;;;;1.38;0.90;;;;;;;30.80;39.45;96948.09;2084914;28;20307;-61
2022/09/04 11:29:31;;;;;;;3.15;1.25;;;;;;;30.36;39.41;96953.31;2086875;28;20192;-63
2022/09/04 11:30:57;;;;;;;1.52;1.25;;;;;;;26.94;45.97;96950.78;2085784;28;20279;-64
2022/09/04 11:32:12;;;;;;;9.07;1.10;;;;;;;27.01;45.64;96943.78;2086540;28;20257;-63
2022/09/04 11:33:21;;;;;;;4.07;1.25;;;;;;;28.00;44.02;96949.13;2094417;28;20208;-64
2022/09/04 11:35:00;;;;;;;8.07;1.13;;;;;;;30.43;39.68;96946.16;2092177;28;20214;-63
2022/09/04 11:36:25;;;;;;;2.80;1.25;;;;;;;29.56;38.90;96947.53;2086558;28;20200;-63
2022/09/04 11:37:57;;;;;;;3.85;0.95;;;;;;;30.53;38.29;96947.78;2085330;28;20930;-63
2022/09/04 11:39:17;;;;;;;3.45;1.02;;;;;;;31.10;36.32;96946.19;2085814;28;20200;-63
2022/09/04 11:40:56;;;;;;;2.03;1.05;;;;;;;30.56;37.84;96948.22;2085777;28;20208;-63
2022/09/04 11:41:57;;;;;;;1.67;0.90;;;;;;;30.43;37.20;96945.31;2085157;28;20338;-64
2022/09/04 11:43:42;;;;;;;2.13;1.25;;;;;;;29.59;38.79;96941.78;2089713;28;20475;-64
2022/09/04 11:44:47;;;;;;;2.28;1.08;;;;;;;29.17;39.63;96945.81;2085513;28;20770;-64
2022/09/04 11:46:21;;;;;;;2.80;1.20;;;;;;;27.47;42.11;96938.78;2086657;28;20222;-64
2022/09/04 11:48:01;;;;;;;3.53;1.10;;;;;;;28.58;40.47;96948.97;2086254;28;20735;-64
2022/09/04 11:49:30;;;;;;;1.75;0.85;;;;;;;27.91;41.66;96947.47;2086145;28;20204;-64
2022/09/04 11:51:15;;;;;;;5.60;1.20;;;;;;;29.01;39.77;96949.41;2080076;28;20678;-64
2022/09/04 11:52:57;;;;;;;1.75;1.00;;;;;;;29.99;37.70;96944.28;2079151;28;20695;-64
2022/09/04 11:54:43;;;;;;;2.47;1.02;;;;;;;28.81;39.79;96946.34;2086721;28;20197;-64
2022/09/04 11:55:45;;;;;;;3.00;1.30;;;;;;;30.08;38.38;96947.72;2061035;28;20768;-64
2022/09/04 11:57:36;;;;;;;3.22;1.10;;;;;;;29.88;38.00;96950.97;2066424;28;20210;-63
2022/09/04 11:59:06;;;;;;;3.35;1.10;;;;;;;30.25;37.25;96946.53;2086285;28;20212;-63
2022/09/04 12:00:11;;;;;;;2.42;1.10;;;;;;;28.75;39.84;96949.75;2086786;28;20679;-63
2022/09/04 12:19:59;;;;;;;3.47;1.25;;;;;;;27.15;45.42;96951.16;2080422;28;20217;-61
2022/09/04 12:21:42;;;;;;;4.07;1.38;;;;;;;26.70;46.11;96918.41;2080008;28;20201;-61
2022/09/04 12:23:02;;;;;;;2.65;1.05;;;;;;;28.46;43.87;96959.25;2080507;28;20217;-62
2022/09/04 12:24:20;;;;;;;4.90;1.25;;;;;;;28.85;42.85;96947.69;2080813;28;20199;-62
2022/09/04 12:32:25;;;;;;;2.17;0.90;;;;;;;30.89;40.01;96950.50;2080159;28;20200;-63
2022/09/04 12:34:15;;;;;;;4.10;1.08;;;;;;;30.22;40.16;96952.31;2080696;28;20189;-63
2022/09/04 12:35:19;;;;;;;2.42;1.33;;;;;;;29.53;41.68;96953.28;2079915;28;20201;-63
2022/09/04 12:36:23;;;;;;;2.50;1.37;;;;;;;28.99;41.00;96952.28;2080933;28;20205;-63
2022/09/04 12:37:42;;;;;;;8.50;0.97;;;;;;;28.66;43.14;96954.31;2080102;28;20465;-63
2022/09/04 12:38:49;;;;;;;4.37;1.30;;;;;;;28.61;42.88;96951.31;2080342;28;20433;-63
2022/09/04 12:40:07;;;;;;;2.47;1.00;;;;;;;28.44;42.56;96959.44;2080707;28;20772;-63
2022/09/04 12:41:16;;;;;;;2.03;1.05;;;;;;;28.64;42.41;96954.47;2080928;28;20264;-63
2022/09/04 12:42:31;;;;;;;1.90;1.00;;;;;;;28.40;43.38;96947.34;2080138;28;20224;-63
2022/09/04 12:49:02;;;;;;;3.40;1.13;;;;;;;29.72;40.60;96951.91;2080768;28;20438;-63
2022/09/04 12:50:14;;;;;;;2.63;0.90;;;;;;;29.10;41.34;96948.38;2080182;28;20422;-63
2022/09/04 12:51:22;;;;;;;2.20;1.03;;;;;;;28.87;41.68;96960.94;2080146;28;20430;-63
2022/09/04 12:52:54;;;;;;;4.30;1.20;;;;;;;28.81;40.93;96963.31;2079773;28;21003;-63
2022/09/04 12:54:32;;;;;;;2.70;1.07;;;;;;;26.59;43.40;96953.50;2080146;28;20953;-63
2022/09/04 12:55:48;;;;;;;2.10;1.10;;;;;;;24.89;49.29;96946.59;2055071;28;20437;-63
2022/09/04 12:57:32;;;;;;;3.20;1.38;;;;;;;26.12;47.22;96956.63;2079079;28;20208;-63
2022/09/04 12:58:58;;;;;;;2.53;1.10;;;;;;;26.08;46.45;96953.47;2080180;28;20192;-63
2022/09/04 13:00:11;;;;;;;2.60;1.60;;;;;;;25.90;47.91;96956.13;2080415;28;20205;-65
2022/09/04 13:01:50;;;;;;;3.03;1.40;;;;;;;26.64;45.87;96950.34;2080528;28;20242;-66
2022/09/04 13:02:58;;;;;;;3.95;1.20;;;;;;;28.65;42.23;96953.44;2080396;28;20667;-66
2022/09/04 13:04:22;;;;;;;2.08;1.00;;;;;;;28.83;39.72;96955.06;2080718;28;20697;-66
2022/09/04 13:05:52;;;;;;;2.17;0.90;;;;;;;29.73;38.95;96958.16;2080140;28;20284;-65
2022/09/04 13:07:05;;;;;;;2.95;1.20;;;;;;;28.33;41.33;96951.75;2085516;28;20196;-65
2022/09/04 13:08:36;;;;;;;1.52;1.10;;;;;;;27.94;41.84;96956.00;2084749;28;20236;-65
2022/09/04 13:09:59;;;;;;;1.80;1.20;;;;;;;28.86;41.32;96956.56;2080320;28;20644;-65
2022/09/04 13:11:19;;;;;;;1.60;1.10;;;;;;;26.59;44.03;96953.50;2078050;28;20848;-65
2022/09/04 13:12:52;;;;;;;3.95;1.10;;;;;;;26.67;43.47;96952.69;2075267;28;20221;-66
2022/09/04 13:14:28;;;;;;;1.40;0.90;;;;;;;26.89;44.29;96952.13;2075079;28;20217;-63
2022/09/04 13:15:40;;;;;;;1.55;1.10;;;;;;;28.18;42.25;96948.94;2080400;28;20197;-63
2022/09/04 13:16:59;;;;;;;2.85;1.20;;;;;;;29.92;38.65;96944.19;2079804;28;20185;-63
2022/09/04 13:18:07;;;;;;;1.70;0.95;;;;;;;28.95;39.94;96956.34;2079711;28;20644;-63
2022/09/04 13:19:21;;;;;;;2.50;0.90;;;;;;;26.40;43.59;96954.63;2080649;28;20205;-63
2022/09/04 13:20:50;;;;;;;4.30;1.10;;;;;;;26.64;43.45;96955.69;2072430;28;20256;-64
2022/09/04 13:22:12;;;;;;;2.30;1.13;;;;;;;27.48;42.27;96945.84;2078103;28;21133;-64
2022/09/04 13:23:51;;;;;;;3.17;1.00;;;;;;;27.75;42.28;96959.91;2087227;28;20196;-66
2022/09/04 13:25:03;;;;;;;9.00;1.27;;;;;;;28.82;40.76;96959.63;2082796;28;20225;-64
2022/09/04 13:26:29;;;;;;;3.08;0.90;;;;;;;28.43;40.39;96960.44;2079649;28;20204;-64
2022/09/04 13:27:56;;;;;;;1.63;1.00;;;;;;;27.17;42.45;96950.97;2078473;28;20304;-63
2022/09/04 13:29:34;;;;;;;2.25;1.23;;;;;;;26.08;44.63;96956.97;2079920;28;20242;-64
2022/09/04 13:31:04;;;;;;;1.45;0.98;;;;;;;25.22;46.66;96957.63;2080563;28;20743;-63
2022/09/04 13:32:17;;;;;;;6.78;1.23;;;;;;;26.19;44.80;96958.50;2079869;28;20197;-63
2022/09/04 13:33:23;;;;;;;2.13;1.33;;;;;;;26.64;44.13;96950.34;2080517;28;20704;-63
2022/09/04 13:35:02;;;;;;;2.30;1.10;;;;;;;27.48;42.89;96953.06;2080568;28;20559;-64
2022/09/04 13:36:22;;;;;;;2.95;1.10;;;;;;;28.26;41.10;96948.09;2080402;28;20193;-64
2022/09/04 13:37:33;;;;;;;2.50;1.10;;;;;;;27.52;42.37;96960.56;2079668;28;20337;-64
2022/09/04 13:38:54;;;;;;;1.85;1.13;;;;;;;27.64;42.46;96955.72;2080273;28;20193;-64
2022/09/04 13:40:11;;;;;;;1.65;0.95;;;;;;;27.06;42.11;96949.47;2087030;28;20204;-64
2022/09/04 13:41:32;;;;;;;1.80;1.00;;;;;;;27.67;42.23;96958.06;2085622;28;20662;-64
2022/09/04 13:43:10;;;;;;;3.95;1.05;;;;;;;28.02;41.85;96961.38;2075044;28;20328;-63
2022/09/04 13:44:37;;;;;;;3.35;0.98;;;;;;;28.64;40.65;96953.63;2078799;28;20833;-63
2022/09/04 13:46:02;;;;;;;3.78;1.40;;;;;;;29.01;39.74;96960.16;2086448;28;20204;-63
2022/09/04 13:47:09;;;;;;;3.25;1.30;;;;;;;27.61;41.99;96947.19;2081547;28;20228;-64
2022/09/04 13:48:45;;;;;;;1.42;1.10;;;;;;;28.02;42.19;96961.38;2080436;28;20729;-64
2022/09/04 13:50:07;;;;;;;9.35;1.50;;;;;;;28.39;41.17;96958.28;2076232;28;20664;-63
2022/09/04 13:51:21;;;;;;;5.68;1.20;;;;;;;28.18;41.81;96955.16;2087351;28;20675;-64
2022/09/04 13:52:52;;;;;;;2.45;1.27;;;;;;;29.93;39.46;96942.38;2083944;28;20326;-63
2022/09/04 13:54:09;;;;;;;5.80;1.80;;;;;;;29.16;38.88;96946.81;2079142;28;20201;-64
2022/09/04 13:55:20;;;;;;;6.07;1.08;;;;;;;29.47;38.88;96916.34;2079771;28;20220;-64
2022/09/04 13:56:30;;;;;;;2.90;1.10;;;;;;;31.04;37.88;96950.41;2080349;28;20197;-62
2022/09/04 13:57:39;;;;;;;1.83;1.17;;;;;;;31.92;36.63;96954.78;2079877;28;20225;-62
2022/09/04 13:58:50;;;;;;;1.20;0.90;;;;;;;32.66;35.91;96947.97;2080360;28;20196;-62
2022/09/04 13:59:53;;;;;;;3.10;1.00;;;;;;;32.26;35.08;96953.16;2077787;28;20196;-63
2022/09/04 14:00:59;;;;;;;1.60;0.90;;;;;;;31.87;35.93;96950.00;2080373;28;20430;-62
2022/09/04 14:02:06;;;;;;;2.90;1.10;;;;;;;32.28;35.47;96953.81;2079752;28;20518;-62
2022/09/04 14:03:11;;;;;;;8.57;1.37;;;;;;;31.26;36.11;96948.63;2079909;28;20449;-62
2022/09/04 14:04:26;;;;;;;14.13;1.10;;;;;;;31.25;36.78;96946.13;2079377;28;20426;-62
2022/09/04 14:05:32;;;;;;;3.63;0.87;;;;;;;31.82;35.96;96940.81;2079557;28;20461;-62
2022/09/04 14:06:35;;;;;;;2.27;1.00;;;;;;;32.56;35.08;96939.41;2080194;28;20421;-63
2022/09/04 14:07:40;;;;;;;3.27;1.07;;;;;;;31.88;34.92;96946.28;2079470;28;20964;-63
2022/09/04 14:08:49;;;;;;;2.17;1.17;;;;;;;30.05;38.25;96943.56;2080142;28;20438;-62
2022/09/04 14:10:51;;;;;;;2.60;1.20;;;;;;;27.90;40.64;96948.50;2079483;28;20435;-63
2022/09/04 14:12:28;;;;;;;1.27;0.90;;;;;;;29.17;40.75;96949.31;2082614;28;20438;-62
2022/09/04 14:13:42;;;;;;;2.50;1.13;;;;;;;30.25;38.68;96945.72;2081383;28;20422;-62
2022/09/04 14:15:16;;;;;;;2.00;0.97;;;;;;;31.36;37.23;96942.06;2079766;28;20425;-63
2022/09/04 14:16:18;;;;;;;2.27;1.10;;;;;;;31.59;36.47;96933.75;2080112;28;20461;-62
2022/09/04 14:17:27;;;;;;;3.57;1.40;;;;;;;32.16;36.29;96949.97;2078746;28;20489;-63
2022/09/04 14:18:40;;;;;;;4.00;1.10;;;;;;;32.34;35.85;96949.47;2078952;28;20440;-63
2022/09/04 14:20:11;;;;;;;1.97;1.00;;;;;;;32.92;34.22;96946.41;2078944;28;20497;-63
2022/09/04 14:21:51;;;;;;;2.17;0.90;;;;;;;32.17;35.12;96946.25;2079623;28;20430;-63
2022/09/04 14:22:55;;;;;;;1.87;1.13;;;;;;;32.52;35.10;96947.06;2079343;28;20959;-63
2022/09/04 14:24:13;;;;;;;2.70;1.03;;;;;;;33.28;34.40;96949.84;2080303;28;20430;-63
2022/09/04 14:25:24;;;;;;;2.70;1.00;;;;;;;33.95;33.25;96956.13;2076191;28;21046;-63
2022/09/04 14:26:43;;;;;;;1.80;1.30;;;;;;;34.20;33.25;96955.50;2075042;28;20431;-63
2022/09/04 14:27:54;;;;;;;1.30;0.83;;;;;;;34.05;33.26;96955.72;2079423;28;20469;-63
2022/09/04 14:29:05;;;;;;;1.47;0.90;;;;;;;32.98;33.24;96953.72;2080125;28;20453;-64
2022/09/04 14:30:21;;;;;;;1.73;1.00;;;;;;;31.85;34.71;96943.13;2079407;28;20521;-64
2022/09/04 14:31:35;;;;;;;1.53;0.90;;;;;;;31.32;36.13;96944.31;2079323;28;20979;-64
2022/09/04 14:33:05;;;;;;;5.80;0.80;;;;;;;30.85;36.77;96948.34;2079544;28;20489;-64
2022/09/04 14:34:35;;;;;;;4.30;1.07;;;;;;;30.36;38.09;96945.25;2079203;28;20960;-64
2022/09/04 14:36:10;;;;;;;1.37;0.83;;;;;;;30.14;38.73;96944.31;2079351;28;20430;-64
2022/09/04 14:37:22;;;;;;;1.50;0.90;;;;;;;29.89;39.21;96947.28;2079636;28;20454;-64
2022/09/04 14:39:00;;;;;;;1.67;1.00;;;;;;;29.70;39.44;96948.59;2079784;28;20433;-62
2022/09/04 14:40:32;;;;;;;2.27;0.97;;;;;;;29.27;40.17;96946.41;2078755;28;20484;-63
2022/09/04 14:41:45;;;;;;;1.93;0.80;;;;;;;29.13;40.71;96948.00;2080172;28;20441;-62
2022/09/04 14:42:56;;;;;;;1.97;1.00;;;;;;;28.17;40.80;96948.09;2079071;28;20454;-63
2022/09/04 14:49:04;;;;;;;2.13;1.10;;;;;;;29.37;40.07;96948.03;2079838;28;20932;-62
2022/09/04 14:50:08;;;;;;;3.33;0.97;;;;;;;29.87;39.76;96948.44;2077546;28;20580;-63
2022/09/04 14:51:15;;;;;;;2.10;1.10;;;;;;;29.16;39.86;96942.25;2078737;28;20449;-62
2022/09/04 14:52:20;;;;;;;1.57;0.97;;;;;;;30.10;38.68;96949.22;2079231;28;20453;-63
2022/09/04 14:53:33;;;;;;;2.30;0.87;;;;;;;30.41;38.84;96941.97;2079771;28;20430;-62
2022/09/04 14:54:42;;;;;;;3.60;1.10;;;;;;;30.03;39.24;96948.31;2079686;28;20426;-63
2022/09/04 15:01:01;;;;;;;1.83;1.20;;;;;;;29.79;38.61;96952.06;2080083;28;20382;-62
2022/09/04 15:02:07;;;;;;;2.37;1.00;;;;;;;29.50;39.31;96953.66;2079642;28;20488;-63
2022/09/04 15:03:23;;;;;;;3.93;1.30;;;;;;;30.44;38.22;96955.09;2079825;28;20426;-63
2022/09/04 15:04:49;;;;;;;1.20;0.90;;;;;;;30.49;38.11;96947.31;2079911;28;20940;-63
2022/09/04 15:06:04;;;;;;;4.10;1.20;;;;;;;31.01;36.73;96940.03;2079534;28;20458;-62
2022/09/04 15:07:28;;;;;;;2.03;1.30;;;;;;;31.14;36.26;96946.63;2078448;28;20430;-63
2022/09/04 15:08:37;;;;;;;2.10;1.20;;;;;;;30.74;37.65;96937.03;2078799;28;20428;-63
2022/09/04 15:09:46;;;;;;;1.50;0.90;;;;;;;31.23;36.61;96934.69;2079744;28;20441;-63
2022/09/04 15:10:52;;;;;;;3.07;1.13;;;;;;;31.65;35.96;96933.00;2079983;28;20957;-63
2022/09/04 15:11:55;;;;;;;2.43;1.00;;;;;;;31.87;35.52;96947.28;2079154;28;20430;-63
2022/09/04 15:13:26;;;;;;;1.23;1.00;;;;;;;32.16;34.41;96941.88;2079559;28;20435;-63
2022/09/04 15:14:35;;;;;;;1.30;0.80;;;;;;;31.96;34.89;96942.59;2079601;28;20433;-63
2022/09/04 15:15:45;;;;;;;2.03;1.00;;;;;;;32.19;34.47;96938.81;2078398;28;20422;-63
2022/09/04 15:16:50;;;;;;;1.93;0.90;;;;;;;32.33;34.26;96940.53;2079826;28;20572;-63
2022/09/04 15:18:01;;;;;;;4.07;1.00;;;;;;;32.17;33.73;96928.16;2079456;28;21175;-63
2022/09/04 15:19:30;;;;;;;1.47;0.90;;;;;;;29.73;36.97;96937.47;2078608;28;20429;-63
2022/09/04 15:20:35;;;;;;;1.60;0.90;;;;;;;28.01;39.76;96927.50;2079134;28;20425;-61
2022/09/04 15:21:57;;;;;;;3.40;0.87;;;;;;;28.40;39.91;96933.94;2079719;28;20456;-61
2022/09/04 15:23:05;;;;;;;2.23;1.00;;;;;;;29.91;37.44;96936.31;2079387;28;20458;-60
2022/09/04 15:24:28;;;;;;;1.80;0.83;;;;;;;28.87;38.49;96934.91;2079955;28;20430;-61
2022/09/04 15:25:56;;;;;;;2.17;0.80;;;;;;;28.76;39.39;96933.47;2079040;28;20465;-61
2022/09/04 15:27:19;;;;;;;3.30;1.03;;;;;;;27.30;41.94;96927.22;2079345;28;20433;-60
2022/09/04 15:28:43;;;;;;;1.37;0.77;;;;;;;27.24;42.20;96935.09;2077501;28;20454;-60
2022/09/04 15:30:02;;;;;;;1.50;1.20;;;;;;;29.27;38.53;96932.94;2079521;28;21142;-60
2022/09/04 15:42:45;;;;;;;1.73;1.00;;;;;;;31.26;35.46;96935.13;2078870;28;20450;-60
2022/09/04 15:43:56;;;;;;;2.50;1.60;;;;;;;29.16;38.00;96923.44;2079757;28;20427;-60
2022/09/04 15:45:03;;;;;;;4.87;1.30;;;;;;;29.06;38.53;96935.47;2079538;28;20427;-61
2022/09/04 15:46:31;;;;;;;1.67;0.93;;;;;;;28.31;39.43;96930.44;2079412;28;20813;-61
2022/09/04 15:48:15;;;;;;;2.00;1.00;;;;;;;28.28;40.02;96932.66;2078854;28;20470;-61
2022/09/04 15:49:23;;;;;;;4.10;1.30;;;;;;;29.48;38.18;96932.31;2072261;28;20426;-61
2022/09/04 15:50:29;;;;;;;1.50;1.10;;;;;;;29.93;37.75;96910.06;2079215;28;20999;-60
2022/09/04 15:51:56;;;;;;;1.77;1.10;;;;;;;30.37;37.37;96933.47;2080484;28;20429;-61
2022/09/04 15:53:13;;;;;;;1.67;1.07;;;;;;;30.76;36.94;96926.06;2079528;28;20441;-61
2022/09/04 15:54:29;;;;;;;1.47;1.00;;;;;;;30.92;35.77;96927.72;2079106;28;20897;-60
2022/09/04 15:55:37;;;;;;;1.93;1.10;;;;;;;30.78;36.21;96922.16;2080703;28;20430;-62
2022/09/04 15:56:51;;;;;;;1.93;0.90;;;;;;;30.63;35.96;96929.44;2080638;28;20425;-62
2022/09/04 15:58:07;;;;;;;3.20;1.00;;;;;;;30.53;36.26;96924.34;2080782;28;20437;-62
2022/09/04 15:59:17;;;;;;;4.77;1.00;;;;;;;30.71;36.19;96923.09;2079951;28;20430;-63
2022/09/04 16:00:23;;;;;;;3.90;1.20;;;;;;;30.70;36.46;96922.28;2081297;28;20430;-62
2022/09/04 16:01:59;;;;;;;3.37;1.00;;;;;;;30.86;36.12;96925.78;2080634;28;20968;-63
2022/09/04 16:03:15;;;;;;;3.63;1.20;;;;;;;30.84;36.14;96914.34;2052531;28;20437;-63
2022/09/04 16:04:21;;;;;;;2.80;1.00;;;;;;;30.80;36.75;96924.66;2079417;28;20452;-63
2022/09/04 16:05:51;;;;;;;3.93;1.40;;;;;;;30.95;36.69;96930.00;2080524;28;20438;-62
2022/09/04 16:07:19;;;;;;;1.13;0.80;;;;;;;31.09;35.97;96921.06;2054125;28;20436;-63
2022/09/04 16:08:27;;;;;;;2.77;1.10;;;;;;;30.87;35.12;96927.44;2071728;28;20434;-63
2022/09/04 16:09:47;;;;;;;1.70;0.90;;;;;;;30.44;35.59;96928.97;2081253;28;20434;-62
2022/09/04 16:11:05;;;;;;;3.53;1.00;;;;;;;29.94;36.79;96926.03;2081162;28;20437;-63
2022/09/04 16:24:07;;;;;;;1.30;1.00;;;;;;;30.12;37.41;96919.44;2080467;28;20922;-63
2022/09/04 16:25:18;;;;;;;3.27;0.87;;;;;;;29.55;37.85;96923.53;2078257;28;20469;-63
2022/09/04 16:26:31;;;;;;;6.00;1.40;;;;;;;29.35;38.10;96901.69;2077570;28;20467;-63
2022/09/04 16:27:41;;;;;;;1.43;1.03;;;;;;;29.45;38.68;96910.31;2080462;28;20840;-63
2022/09/04 16:28:50;;;;;;;1.80;1.07;;;;;;;29.27;38.84;96898.00;2080926;28;20426;-63
2022/09/04 16:30:01;;;;;;;1.27;1.00;;;;;;;29.41;38.80;96915.22;2080742;28;20423;-63
2022/09/04 16:36:44;;;;;;;1.73;0.90;;;;;;;28.94;39.90;96911.69;2080256;28;20481;-63
2022/09/04 16:38:11;;;;;;;3.03;0.80;;;;;;;28.96;40.04;96908.81;2054290;28;20468;-63
2022/09/04 16:39:15;;;;;;;2.40;0.90;;;;;;;28.78;40.50;96909.94;2055360;28;20472;-63
2022/09/04 16:40:32;;;;;;;3.07;1.20;;;;;;;28.76;40.88;96919.19;2079538;28;20463;-63
2022/09/04 16:41:39;;;;;;;4.93;1.20;;;;;;;28.43;41.08;96922.00;2085176;28;20502;-63
2022/09/04 16:42:59;;;;;;;3.80;1.10;;;;;;;28.33;40.70;96906.94;2080442;28;20810;-64
2022/09/04 16:44:13;;;;;;;4.10;1.40;;;;;;;28.27;41.59;96915.69;2087848;28;20422;-63
2022/09/04 16:45:49;;;;;;;1.80;1.20;;;;;;;28.10;41.62;96917.59;2086049;28;20429;-63